Time;durP1;ratioP1;P1;durP2;ratioP2;P2;SDS_P1;SDS_P2;PMS_P1;PMS_P2;Temp;Humidity;BMP_temperature;BMP_pressure;BME280_temperature;BME280_humidity;BME280_pressure;Samples;Min_cycle;Max_cycle;Signal;HPM_P1;HPM_P2
2022/02/15 00:01:18;;;;;;;5.30;3.98;;;;;;;13.08;52.08;100506.47;1831133;78;21053;-67
2022/02/15 00:03:45;;;;;;;5.22;3.52;;;;;;;13.06;52.04;100508.47;1822952;77;20982;-67
2022/02/15 00:06:12;;;;;;;4.75;3.87;;;;;;;13.05;52.03;100506.28;1813649;78;21319;-67
2022/02/15 00:08:38;;;;;;;4.12;3.33;;;;;;;13.04;52.02;100509.11;1766912;80;21765;-67
2022/02/15 00:11:04;;;;;;;5.12;3.80;;;;;;;13.02;52.02;100504.44;1804993;78;21085;-67
2022/02/15 00:13:31;;;;;;;3.70;3.37;;;;;;;12.99;51.99;100495.77;1833302;78;20979;-68
2022/02/15 00:15:57;;;;;;;4.92;3.70;;;;;;;12.99;51.97;100495.77;1830974;77;21026;-67
2022/02/15 00:18:23;;;;;;;6.72;4.55;;;;;;;12.98;51.94;100497.30;1837230;78;21775;-68
2022/02/15 00:20:50;;;;;;;5.20;3.45;;;;;;;12.97;51.92;100496.44;1820752;78;21022;-67
2022/02/15 00:23:16;;;;;;;4.90;3.62;;;;;;;12.95;51.91;100493.11;1804645;79;21018;-68
2022/02/15 00:25:43;;;;;;;5.17;3.80;;;;;;;12.93;51.91;100491.61;1791846;79;21077;-67
2022/02/15 00:28:09;;;;;;;5.40;3.70;;;;;;;12.92;51.90;100496.12;1780970;79;21069;-68
2022/02/15 00:30:36;;;;;;;4.83;3.87;;;;;;;12.90;51.87;100489.27;1776783;79;21972;-68
2022/02/15 00:33:03;;;;;;;5.05;4.00;;;;;;;12.90;51.87;100494.59;1763433;80;21478;-68
2022/02/15 00:35:29;;;;;;;4.72;3.72;;;;;;;12.88;51.85;100489.94;1773814;80;21087;-68
2022/02/15 00:37:56;;;;;;;4.47;3.65;;;;;;;12.86;51.87;100486.59;1773400;80;21026;-67
2022/02/15 00:40:24;;;;;;;6.30;3.80;;;;;;;12.84;51.83;100492.09;1802528;78;21018;-67
2022/02/15 00:42:50;;;;;;;4.80;4.03;;;;;;;12.82;51.83;100487.42;1803542;79;21063;-66
2022/02/15 00:45:17;;;;;;;5.40;3.85;;;;;;;12.81;51.81;100484.44;1778577;79;21038;-67
2022/02/15 00:47:44;;;;;;;5.12;4.08;;;;;;;12.80;51.82;100488.09;1807628;79;21117;-66
2022/02/15 00:50:10;;;;;;;3.80;3.30;;;;;;;12.79;51.82;100481.93;1801569;78;21026;-67
2022/02/15 00:52:37;;;;;;;5.85;4.47;;;;;;;12.78;51.79;100486.09;1800910;78;21030;-66
2022/02/15 00:55:05;;;;;;;5.10;4.17;;;;;;;12.76;51.78;100482.25;1803157;78;21164;-67
2022/02/15 00:57:31;;;;;;;4.87;3.80;;;;;;;12.76;51.79;100488.91;1795170;78;21018;-67
2022/02/15 00:59:58;;;;;;;4.85;4.15;;;;;;;12.75;51.78;100485.09;1797836;78;21058;-68
2022/02/15 01:02:24;;;;;;;6.70;4.10;;;;;;;12.72;51.76;100474.24;1807560;79;20997;-68
2022/02/15 01:04:51;;;;;;;5.78;3.87;;;;;;;12.72;51.76;100473.42;1768915;80;21054;-67
2022/02/15 01:08:22;;;;;;;5.62;4.62;;;;;;;12.69;51.76;100475.92;1802436;78;21113;-67
2022/02/15 01:10:49;;;;;;;4.85;3.98;;;;;;;12.69;51.76;100476.40;1803083;79;21037;-67
2022/02/15 01:13:17;;;;;;;5.12;4.03;;;;;;;12.66;51.75;100478.08;1800670;78;21494;-67
2022/02/15 01:15:44;;;;;;;5.65;4.05;;;;;;;12.63;51.77;100474.39;1793952;79;21524;-67
2022/02/15 01:18:10;;;;;;;5.45;3.75;;;;;;;12.61;51.78;100466.55;1794969;79;20998;-68
2022/02/15 01:20:37;;;;;;;5.15;3.80;;;;;;;12.60;51.77;100470.23;1756978;80;21125;-68
2022/02/15 01:23:04;;;;;;;4.90;3.85;;;;;;;12.58;51.77;100470.90;1775612;80;20989;-67
2022/02/15 01:25:31;;;;;;;5.55;3.50;;;;;;;12.57;51.74;100462.55;1784436;79;21009;-67
2022/02/15 01:27:58;;;;;;;4.33;3.60;;;;;;;12.56;51.74;100462.23;1801470;78;21097;-68
2022/02/15 01:30:25;;;;;;;5.17;4.08;;;;;;;12.55;51.75;100463.22;1795888;79;21043;-67
2022/02/15 01:32:51;;;;;;;4.97;4.17;;;;;;;12.53;51.73;100468.70;1795180;79;21793;-67
2022/02/15 01:35:18;;;;;;;4.28;3.55;;;;;;;12.51;51.70;100460.04;1778437;80;21518;-67
2022/02/15 01:37:45;;;;;;;5.20;3.70;;;;;;;12.50;51.68;100455.72;1777996;79;21558;-68
2022/02/15 01:40:13;;;;;;;5.75;4.45;;;;;;;12.49;51.68;100460.70;1843463;77;21002;-67
2022/02/15 01:42:39;;;;;;;4.80;3.75;;;;;;;12.48;51.67;100459.56;1842309;76;21034;-68
2022/02/15 01:45:12;;;;;;;5.08;3.80;;;;;;;12.47;51.64;100457.87;1783311;79;22281;-67
2022/02/15 01:47:39;;;;;;;5.22;4.35;;;;;;;12.45;51.62;100461.20;1837242;77;20966;-67
2022/02/15 01:50:07;;;;;;;5.08;3.80;;;;;;;12.44;51.62;100460.37;1852028;77;22022;-67
2022/02/15 01:52:34;;;;;;;4.30;3.80;;;;;;;12.43;51.61;100464.02;1776379;80;21028;-67
2022/02/15 01:55:02;;;;;;;4.45;3.80;;;;;;;12.42;51.61;100469.51;1851974;77;20970;-67
2022/02/15 01:57:30;;;;;;;6.80;4.00;;;;;;;12.41;51.57;100466.53;1854074;77;21825;-67
2022/02/15 02:00:05;;;;;;;4.95;4.05;;;;;;;12.39;51.58;100460.02;1808830;78;20968;-68
2022/02/15 02:02:34;;;;;;;4.10;3.35;;;;;;;12.38;51.59;100459.67;1843785;77;21072;-67
2022/02/15 02:07:46;;;;;;;4.40;3.72;;;;;;;12.35;51.57;100464.83;1835534;75;21032;-68
2022/02/15 02:10:14;;;;;;;4.40;3.60;;;;;;;12.33;51.53;100461.50;1837756;77;21014;-67
2022/02/15 02:12:42;;;;;;;5.45;3.60;;;;;;;12.32;51.55;100463.84;1782848;79;21073;-67
2022/02/15 02:15:22;;;;;;;5.55;3.85;;;;;;;12.31;51.54;100462.16;1783822;80;21022;-68
2022/02/15 02:17:59;;;;;;;6.10;4.28;;;;;;;12.28;51.56;100461.14;1838854;77;20989;-66
2022/02/15 02:20:26;;;;;;;4.62;3.67;;;;;;;12.27;51.53;100460.00;1853652;76;20983;-68
2022/02/15 02:22:53;;;;;;;4.33;3.62;;;;;;;12.26;51.54;100457.80;1782537;80;21137;-66
2022/02/15 02:25:21;;;;;;;4.22;3.50;;;;;;;12.25;51.54;100457.48;1769820;78;21085;-67
2022/02/15 02:27:48;;;;;;;5.35;3.62;;;;;;;12.23;51.56;100468.80;1774385;80;21017;-68
2022/02/15 02:30:17;;;;;;;5.50;4.37;;;;;;;12.23;51.53;100456.81;1769504;81;21050;-67
2022/02/15 02:32:45;;;;;;;4.40;4.00;;;;;;;12.23;51.52;100450.63;1776242;79;21340;-68
2022/02/15 02:35:13;;;;;;;4.78;3.85;;;;;;;12.21;51.50;100457.48;1771486;80;21107;-68
2022/02/15 02:40:11;;;;;;;4.17;3.37;;;;;;;12.23;51.50;100455.48;1875142;75;28542;-68
2022/02/15 02:42:40;;;;;;;5.37;3.90;;;;;;;12.17;51.48;100455.62;1800542;78;20964;-68
2022/02/15 02:45:17;;;;;;;4.35;3.77;;;;;;;12.17;51.46;100456.95;1843305;77;21101;-67
2022/02/15 02:47:47;;;;;;;4.60;3.90;;;;;;;12.16;51.47;100447.28;1834693;77;21572;-67
2022/02/15 02:50:15;;;;;;;5.10;3.77;;;;;;;12.16;51.45;100461.11;1841491;77;21029;-67
2022/02/15 02:52:42;;;;;;;4.70;3.42;;;;;;;12.15;51.46;100472.77;1839992;76;21079;-66
2022/02/15 02:55:09;;;;;;;4.78;3.85;;;;;;;12.14;51.45;100467.09;1849385;77;20949;-67
2022/02/15 02:57:36;;;;;;;4.03;3.27;;;;;;;12.12;51.45;100459.26;1846430;77;21120;-67
2022/02/15 03:00:10;;;;;;;4.12;3.55;;;;;;;12.12;51.43;100465.09;1845835;77;21032;-67
2022/02/15 03:02:41;;;;;;;4.55;3.40;;;;;;;12.11;51.44;100464.73;1842652;77;21407;-68
2022/02/15 03:05:08;;;;;;;4.58;3.77;;;;;;;12.11;51.43;100464.73;1852781;77;21009;-68
2022/02/15 03:07:35;;;;;;;4.62;3.62;;;;;;;12.09;51.44;100467.59;1846449;76;21273;-67
2022/02/15 03:10:03;;;;;;;4.10;3.17;;;;;;;12.08;51.45;100469.90;1782025;80;21981;-67
2022/02/15 03:12:30;;;;;;;4.58;3.87;;;;;;;12.07;51.44;100470.05;1809888;78;21048;-68
2022/02/15 03:14:57;;;;;;;4.92;3.90;;;;;;;12.06;51.43;100467.07;1786354;79;20981;-68
2022/02/15 03:17:23;;;;;;;5.75;4.20;;;;;;;12.06;51.43;100464.41;1802763;78;21014;-66
2022/02/15 03:19:51;;;;;;;4.25;3.65;;;;;;;12.05;51.41;100470.20;1774165;80;21030;-68
2022/02/15 03:22:19;;;;;;;4.25;3.47;;;;;;;12.05;51.41;100466.72;1788481;80;21142;-68
2022/02/15 03:24:46;;;;;;;4.35;3.35;;;;;;;12.02;51.42;100463.89;1787817;79;21013;-67
2022/02/15 03:27:13;;;;;;;4.05;3.33;;;;;;;12.02;51.40;100463.89;1799074;79;21536;-67
2022/02/15 03:29:40;;;;;;;4.70;3.65;;;;;;;12.01;51.40;100470.19;1795582;79;21008;-68
2022/02/15 03:32:07;;;;;;;4.47;3.77;;;;;;;12.00;51.38;100463.22;1783164;79;20986;-67
2022/02/15 03:34:35;;;;;;;6.75;3.70;;;;;;;11.99;51.37;100468.19;1785361;79;21190;-67
2022/02/15 03:37:01;;;;;;;4.53;3.70;;;;;;;11.98;51.38;100462.55;1791084;78;21009;-68
2022/02/15 03:39:30;;;;;;;4.35;3.30;;;;;;;11.98;51.38;100463.37;1788509;78;21045;-68
2022/02/15 03:44:43;;;;;;;4.15;3.42;;;;;;;11.96;51.38;100464.03;1770422;80;21093;-68
2022/02/15 03:47:12;;;;;;;4.95;3.90;;;;;;;11.94;51.35;100463.35;1773993;80;21018;-68
2022/02/15 03:49:40;;;;;;;4.37;3.22;;;;;;;11.93;51.35;100463.00;1790006;80;21042;-67
2022/02/15 03:52:08;;;;;;;3.75;2.87;;;;;;;11.92;51.35;100461.34;1749813;81;21061;-68
2022/02/15 03:54:35;;;;;;;4.28;3.20;;;;;;;11.92;51.34;100465.84;1778146;78;21037;-67
2022/02/15 03:57:02;;;;;;;4.40;3.62;;;;;;;11.91;51.35;100471.64;1778746;79;21505;-68
2022/02/15 03:59:30;;;;;;;5.25;3.98;;;;;;;11.90;51.36;100463.81;1759013;80;21187;-68
2022/02/15 04:01:58;;;;;;;4.12;3.15;;;;;;;11.88;51.34;100464.44;1752453;80;20999;-67
2022/02/15 04:04:26;;;;;;;4.40;3.02;;;;;;;11.88;51.31;100471.09;1795146;79;21038;-67
2022/02/15 04:06:54;;;;;;;4.45;3.85;;;;;;;11.87;51.31;100472.10;1768480;80;21077;-68
2022/02/15 04:09:20;;;;;;;4.35;3.37;;;;;;;11.86;51.31;100474.41;1777065;79;21014;-66
2022/02/15 04:11:47;;;;;;;4.47;3.42;;;;;;;11.86;51.30;100481.06;1804295;79;21226;-67
2022/02/15 04:14:15;;;;;;;4.30;3.40;;;;;;;11.84;51.31;100475.92;1791104;79;21049;-68
2022/02/15 04:16:42;;;;;;;4.78;3.55;;;;;;;11.84;51.31;100480.39;1783304;79;21101;-67
2022/02/15 04:19:11;;;;;;;3.67;3.12;;;;;;;11.83;51.29;100476.08;1773982;80;21077;-67
2022/02/15 04:21:38;;;;;;;4.12;3.08;;;;;;;11.83;51.29;100476.91;1766164;80;21061;-67
2022/02/15 04:24:05;;;;;;;3.92;3.35;;;;;;;11.81;51.27;100482.38;1788490;79;21198;-68
2022/02/15 04:26:34;;;;;;;5.83;3.80;;;;;;;11.80;51.27;100478.06;1802434;79;21065;-67
2022/02/15 04:29:01;;;;;;;4.33;3.30;;;;;;;11.80;51.28;100473.22;1786405;79;21545;-67
2022/02/15 04:31:29;;;;;;;4.65;3.60;;;;;;;11.79;51.28;100479.55;1800021;79;21503;-66
2022/02/15 04:33:56;;;;;;;5.03;3.67;;;;;;;11.79;51.27;100487.53;1799806;78;21097;-68
2022/02/15 04:36:23;;;;;;;3.52;2.90;;;;;;;11.78;51.25;100480.53;1782964;79;21129;-67
2022/02/15 04:38:51;;;;;;;5.00;3.72;;;;;;;11.76;51.24;100488.70;1774964;79;21029;-67
2022/02/15 04:41:17;;;;;;;5.00;3.55;;;;;;;11.76;51.26;100483.84;1800864;78;21807;-67
2022/02/15 04:43:45;;;;;;;4.70;3.30;;;;;;;11.74;51.25;100488.02;1806458;79;21042;-67
2022/02/15 04:46:13;;;;;;;4.97;3.92;;;;;;;11.73;51.28;100488.17;1797518;79;21018;-67
2022/02/15 04:48:39;;;;;;;3.62;2.92;;;;;;;11.72;51.28;100487.81;1808370;79;21932;-67
2022/02/15 04:51:06;;;;;;;4.22;3.37;;;;;;;11.71;51.27;100486.98;1779201;80;21023;-66
2022/02/15 04:53:32;;;;;;;4.28;3.30;;;;;;;11.71;51.27;100490.16;1848025;77;21489;-67
2022/02/15 04:56:02;;;;;;;3.92;3.45;;;;;;;11.70;51.28;100486.64;1826463;77;21049;-67
2022/02/15 04:58:30;;;;;;;4.47;3.50;;;;;;;11.69;51.27;100486.82;1851190;77;21088;-66
2022/02/15 05:00:56;;;;;;;5.50;3.98;;;;;;;11.68;51.27;100490.45;1849095;77;21970;-67
2022/02/15 05:03:25;;;;;;;4.67;3.35;;;;;;;11.66;51.28;100490.61;1831096;77;21576;-67
2022/02/15 05:05:53;;;;;;;4.92;4.08;;;;;;;11.66;51.26;100496.44;1841654;77;21013;-66
2022/02/15 05:08:21;;;;;;;4.58;3.47;;;;;;;11.66;51.26;100499.09;1858014;77;21642;-67
2022/02/15 05:10:49;;;;;;;5.53;4.12;;;;;;;11.65;51.27;100497.41;1829109;77;21072;-67
2022/02/15 05:13:16;;;;;;;4.08;3.65;;;;;;;11.63;51.26;100501.58;1851776;77;21842;-67
2022/02/15 05:15:44;;;;;;;4.45;3.87;;;;;;;11.63;51.25;100504.25;1838004;77;21480;-68
2022/02/15 05:18:15;;;;;;;5.25;3.80;;;;;;;11.61;51.25;100505.73;1764984;80;21070;-67
2022/02/15 05:20:44;;;;;;;6.05;4.03;;;;;;;11.60;51.26;100504.05;1848444;77;21072;-68
2022/02/15 05:23:11;;;;;;;4.92;3.75;;;;;;;11.60;51.25;100504.05;1852821;77;21432;-67
2022/02/15 05:25:39;;;;;;;5.40;4.08;;;;;;;11.59;51.25;100506.38;1853132;77;21517;-68
2022/02/15 05:28:09;;;;;;;3.65;3.30;;;;;;;11.58;51.24;100502.03;1791779;79;21006;-67
2022/02/15 05:30:37;;;;;;;4.20;3.47;;;;;;;11.58;51.24;100501.20;1801946;79;21038;-67
2022/02/15 05:33:05;;;;;;;4.00;3.55;;;;;;;11.57;51.24;100507.03;1802549;78;21592;-68
2022/02/15 05:35:33;;;;;;;4.40;3.65;;;;;;;11.56;51.24;100509.34;1817738;78;21030;-68
2022/02/15 05:38:00;;;;;;;5.00;3.80;;;;;;;11.56;51.24;100512.50;1847935;76;21049;-66
2022/02/15 05:40:29;;;;;;;4.20;3.70;;;;;;;11.56;51.24;100523.98;1845300;77;21101;-67
2022/02/15 05:43:00;;;;;;;4.83;3.65;;;;;;;11.55;51.24;100519.66;1832245;77;21603;-67
2022/02/15 05:45:27;;;;;;;5.25;3.77;;;;;;;11.55;51.23;100518.33;1845032;77;21009;-67
2022/02/15 05:48:05;;;;;;;4.67;3.55;;;;;;;11.54;51.24;100520.64;1839151;77;21039;-69
2022/02/15 05:50:50;;;;;;;4.45;3.75;;;;;;;11.54;51.24;100519.30;1770452;80;21142;-68
2022/02/15 05:53:20;;;;;;;4.70;3.55;;;;;;;11.54;51.25;100523.30;1793729;79;21022;-68
2022/02/15 05:55:48;;;;;;;4.20;3.42;;;;;;;11.53;51.25;100519.45;1772963;79;21617;-68
2022/02/15 05:58:16;;;;;;;5.30;4.05;;;;;;;11.42;51.25;100499.27;1798187;79;21494;-69
2022/02/15 06:00:44;;;;;;;5.97;4.22;;;;;;;11.52;51.26;100513.31;1765365;80;21493;-67
2022/02/15 06:05:56;;;;;;;5.00;3.87;;;;;;;11.52;51.22;100509.82;1765023;80;21057;-69
2022/02/15 06:08:24;;;;;;;5.17;3.70;;;;;;;11.52;51.21;100519.13;1774914;80;21038;-68
2022/02/15 06:10:53;;;;;;;5.67;4.10;;;;;;;11.52;51.20;100519.96;1764042;80;21014;-67
2022/02/15 06:13:33;;;;;;;4.85;3.90;;;;;;;11.52;51.18;100517.80;1775386;80;21504;-68
2022/02/15 06:16:02;;;;;;;4.60;3.85;;;;;;;11.51;51.18;100518.30;1768775;80;21948;-67
2022/02/15 06:18:33;;;;;;;5.80;4.03;;;;;;;11.52;51.17;100523.95;1769972;80;21078;-67
2022/02/15 06:21:02;;;;;;;5.33;4.15;;;;;;;11.53;51.13;100514.13;1769763;80;21053;-67
2022/02/15 06:23:29;;;;;;;5.05;4.25;;;;;;;11.52;51.14;100521.29;1771320;80;21049;-68
2022/02/15 06:26:03;;;;;;;4.42;3.95;;;;;;;11.54;51.12;100525.13;1829419;77;21009;-67
2022/02/15 06:28:32;;;;;;;5.05;3.95;;;;;;;11.52;51.11;100513.31;1842029;77;21141;-68
2022/02/15 06:31:06;;;;;;;6.20;4.10;;;;;;;11.53;51.11;100514.13;1843673;77;21104;-67
2022/02/15 06:33:34;;;;;;;4.83;3.77;;;;;;;11.53;51.11;100516.33;1846713;76;20997;-70
2022/02/15 06:36:05;;;;;;;4.97;4.03;;;;;;;11.54;51.10;100515.82;1825290;77;21522;-67
2022/02/15 06:38:32;;;;;;;4.78;4.08;;;;;;;11.54;51.09;100509.99;1828074;77;21101;-67
2022/02/15 06:41:06;;;;;;;4.35;3.50;;;;;;;11.57;51.07;100506.17;1823921;77;21953;-67
2022/02/15 06:43:34;;;;;;;5.05;3.92;;;;;;;11.57;51.07;100511.50;1829760;77;21057;-65
2022/02/15 06:46:01;;;;;;;5.00;3.80;;;;;;;11.58;51.06;100514.52;1845545;77;21049;-68
2022/02/15 06:48:29;;;;;;;4.42;3.35;;;;;;;11.57;51.04;100508.36;1843381;77;21466;-66
2022/02/15 06:50:57;;;;;;;5.55;4.25;;;;;;;11.57;51.04;100508.36;1824961;77;21067;-67
2022/02/15 06:53:26;;;;;;;5.20;4.03;;;;;;;11.59;51.00;100507.71;1813438;77;21203;-67
2022/02/15 06:56:11;;;;;;;5.15;4.50;;;;;;;11.60;51.01;100508.54;1839194;77;20986;-67
2022/02/15 06:58:39;;;;;;;4.28;3.87;;;;;;;11.60;50.99;100510.70;1830744;77;21085;-67
2022/02/15 07:01:06;;;;;;;5.20;4.40;;;;;;;11.61;50.98;100511.05;1844610;77;21045;-67
2022/02/15 07:03:33;;;;;;;5.20;3.95;;;;;;;11.63;50.97;100510.05;1828583;77;21022;-66
2022/02/15 07:06:02;;;;;;;4.58;3.87;;;;;;;11.63;50.97;100504.25;1834550;77;21150;-66
2022/02/15 07:08:28;;;;;;;5.05;4.10;;;;;;;11.63;50.97;100501.58;1810282;77;20986;-67
2022/02/15 07:10:56;;;;;;;5.05;4.03;;;;;;;11.64;50.96;100507.23;1847541;77;20998;-66
2022/02/15 07:13:27;;;;;;;5.70;3.95;;;;;;;11.66;50.96;100505.25;1843481;77;21030;-66
2022/02/15 07:15:55;;;;;;;4.25;3.62;;;;;;;11.66;50.93;100500.42;1846359;77;21555;-67
2022/02/15 07:18:23;;;;;;;5.15;3.90;;;;;;;11.66;50.93;100497.27;1805065;79;21104;-66
2022/02/15 07:21:08;;;;;;;5.12;4.03;;;;;;;11.69;50.92;100500.12;1759366;80;21043;-66
2022/02/15 07:23:55;;;;;;;5.20;4.30;;;;;;;11.70;50.91;100500.45;1770155;80;21046;-66
2022/02/15 07:26:40;;;;;;;6.03;4.97;;;;;;;11.70;50.89;100498.61;1765173;79;21078;-67
2022/02/15 07:29:14;;;;;;;4.70;4.12;;;;;;;11.70;50.86;100500.45;1775961;80;21518;-67
2022/02/15 07:31:55;;;;;;;4.97;3.90;;;;;;;11.70;50.89;100494.63;1731720;80;21164;-67
2022/02/15 07:34:22;;;;;;;8.70;3.92;;;;;;;11.71;50.85;100490.98;1766127;80;21035;-74
2022/02/15 07:36:49;;;;;;;8.55;4.83;;;;;;;11.72;53.62;100442.06;1767651;80;21041;-69
2022/02/15 07:39:15;;;;;;;6.87;4.87;;;;;;;11.85;62.74;100492.22;1765506;80;21049;-69
2022/02/15 07:41:41;;;;;;;9.25;4.45;;;;;;;11.97;61.30;100496.80;1757506;80;21447;-70
2022/02/15 07:44:09;;;;;;;9.90;4.37;;;;;;;12.05;61.37;100494.68;1764081;80;21054;-70
2022/02/15 07:46:37;;;;;;;11.57;4.45;;;;;;;12.09;61.66;100492.89;1769066;80;21097;-70
2022/02/15 07:49:04;;;;;;;8.35;4.85;;;;;;;12.12;61.71;100485.06;1785807;78;21076;-68
2022/02/15 07:51:30;;;;;;;7.10;4.50;;;;;;;12.13;61.60;100483.58;1768462;79;21560;-65
2022/02/15 07:53:58;;;;;;;9.70;4.55;;;;;;;12.15;61.36;100478.92;1785104;80;21033;-66
2022/02/15 07:56:25;;;;;;;7.80;4.30;;;;;;;12.16;61.07;100480.58;1766508;80;22365;-64
2022/02/15 07:58:51;;;;;;;5.78;4.10;;;;;;;12.18;60.72;100481.76;1771082;79;21102;-66
2022/02/15 08:01:17;;;;;;;6.60;4.78;;;;;;;12.19;60.34;100484.77;1790435;79;21537;-69
2022/02/15 08:03:44;;;;;;;7.25;4.53;;;;;;;12.20;59.96;100480.59;1801856;78;21093;-71
2022/02/15 08:06:11;;;;;;;9.33;5.00;;;;;;;12.22;59.57;100481.77;1773979;80;21058;-71
2022/02/15 08:08:37;;;;;;;7.95;4.22;;;;;;;12.23;59.19;100479.45;1780956;79;21961;-68
2022/02/15 08:11:04;;;;;;;6.45;4.35;;;;;;;12.25;58.82;100480.13;1794818;78;21018;-72
2022/02/15 08:13:34;;;;;;;7.22;4.20;;;;;;;12.27;58.47;100475.47;1836781;77;21019;-68
2022/02/15 08:15:59;;;;;;;7.20;4.37;;;;;;;12.28;58.13;100471.80;1832754;77;21002;-70
2022/02/15 08:18:26;;;;;;;8.30;4.72;;;;;;;12.31;57.81;100475.48;1829695;77;21015;-70
2022/02/15 08:20:52;;;;;;;5.97;4.37;;;;;;;12.33;57.49;100466.00;1791094;78;21037;-68
2022/02/15 08:23:19;;;;;;;6.47;4.00;;;;;;;12.35;57.20;100465.34;1832504;77;20997;-70
2022/02/15 08:25:46;;;;;;;6.03;4.05;;;;;;;12.37;56.93;100475.34;1830801;77;21061;-69
2022/02/15 08:28:13;;;;;;;5.80;4.40;;;;;;;12.38;56.67;100473.84;1831459;77;21088;-69
2022/02/15 08:30:40;;;;;;;7.55;4.60;;;;;;;12.41;56.45;100465.19;1821495;77;21041;-66
2022/02/15 08:33:08;;;;;;;6.35;4.60;;;;;;;12.43;56.41;100465.36;1829303;76;21127;-70
2022/02/15 08:35:34;;;;;;;6.53;4.55;;;;;;;12.48;56.47;100460.38;1836684;77;21512;-69
2022/02/15 08:38:01;;;;;;;10.28;5.90;;;;;;;12.54;56.79;100456.23;1832024;77;21006;-66
2022/02/15 08:40:27;;;;;;;8.23;4.95;;;;;;;12.59;57.12;100458.75;1830619;77;21549;-67
2022/02/15 08:42:56;;;;;;;9.20;5.12;;;;;;;12.64;57.24;100460.08;1835672;78;21014;-69
2022/02/15 08:45:23;;;;;;;8.85;5.25;;;;;;;12.69;57.31;100455.93;1827724;77;21430;-70
2022/02/15 08:47:50;;;;;;;6.92;4.00;;;;;;;12.73;57.28;100465.27;1832810;77;21086;-68
2022/02/15 08:50:17;;;;;;;9.18;4.78;;;;;;;12.78;57.24;100463.42;1827310;77;21005;-68
2022/02/15 08:52:44;;;;;;;10.20;5.60;;;;;;;12.83;57.11;100457.11;1824322;77;21045;-67
2022/02/15 08:55:10;;;;;;;8.83;4.75;;;;;;;12.87;56.96;100462.95;1823828;78;21060;-68
2022/02/15 08:57:38;;;;;;;6.10;4.58;;;;;;;12.91;56.82;100456.28;1833575;78;21125;-69
2022/02/15 09:00:07;;;;;;;9.40;4.67;;;;;;;12.94;56.66;100459.45;1818269;78;21084;-67
2022/02/15 09:02:35;;;;;;;7.87;5.00;;;;;;;12.98;56.49;100464.78;1818125;78;21045;-66
2022/02/15 09:05:06;;;;;;;8.05;4.75;;;;;;;13.03;56.33;100456.78;1825039;76;21096;-68
2022/02/15 09:07:32;;;;;;;10.08;4.40;;;;;;;13.06;56.26;100453.80;1823016;77;21112;-70
2022/02/15 09:09:59;;;;;;;6.20;4.55;;;;;;;13.09;56.09;100450.27;1823853;78;21500;-67
2022/02/15 09:12:25;;;;;;;8.30;4.80;;;;;;;13.13;55.99;100460.11;1826800;78;21137;-68
2022/02/15 09:14:52;;;;;;;6.58;4.33;;;;;;;13.18;55.84;100458.61;1821494;77;22572;-68
2022/02/15 09:17:19;;;;;;;7.20;4.85;;;;;;;13.24;55.67;100455.77;1828156;77;21533;-65
2022/02/15 09:19:46;;;;;;;9.78;5.95;;;;;;;13.28;55.47;100450.42;1820884;78;20986;-62
2022/02/15 09:22:15;;;;;;;14.90;6.80;;;;;;;13.42;59.27;100404.08;1818567;78;21146;-64
2022/02/15 09:24:42;;;;;;;10.78;5.92;;;;;;;13.72;60.25;100396.64;1833899;76;21006;-67
2022/02/15 09:27:08;;;;;;;12.07;5.75;;;;;;;14.10;60.28;100406.65;1829336;77;21022;-66
2022/02/15 09:29:34;;;;;;;9.63;5.87;;;;;;;14.45;60.15;100392.44;1822477;78;21001;-67
2022/02/15 09:32:01;;;;;;;8.93;5.97;;;;;;;14.80;59.83;100389.69;1828676;78;21021;-66
2022/02/15 09:34:29;;;;;;;8.43;5.87;;;;;;;15.13;59.55;100376.84;1804457;78;21134;-69
2022/02/15 09:36:55;;;;;;;14.45;5.80;;;;;;;15.44;59.21;100377.20;1810401;78;20991;-66
2022/02/15 09:39:22;;;;;;;13.45;6.15;;;;;;;15.72;58.94;100380.55;1766177;80;21589;-67
2022/02/15 09:41:48;;;;;;;9.90;5.83;;;;;;;15.98;58.60;100384.12;1819501;77;21123;-67
2022/02/15 09:44:14;;;;;;;8.83;5.62;;;;;;;16.20;58.21;100351.47;1822958;76;21481;-65
2022/02/15 09:46:44;;;;;;;9.90;5.85;;;;;;;16.43;57.84;100353.16;1826214;76;22298;-72
2022/02/15 09:49:48;;;;;;;13.72;6.28;;;;;;;16.64;57.72;100363.05;1822139;77;21061;-68
2022/02/15 09:51:39;;;;;;;7.05;5.60;;;;;;;16.83;58.04;100366.96;1826743;77;21478;-68
2022/02/15 09:54:06;;;;;;;8.40;5.87;;;;;;;16.99;58.03;100353.24;1842712;77;21042;-67
2022/02/15 09:56:32;;;;;;;10.72;5.33;;;;;;;17.17;57.84;100368.03;1841019;77;21036;-67
2022/02/15 09:58:58;;;;;;;10.95;5.00;;;;;;;17.33;57.61;100361.55;1846023;77;21131;-67
2022/02/15 10:01:25;;;;;;;8.43;5.60;;;;;;;17.48;57.36;100349.65;1846820;77;21644;-68
2022/02/15 10:04:00;;;;;;;9.03;5.25;;;;;;;17.63;57.02;100349.48;1821315;77;22143;-67
2022/02/15 10:06:31;;;;;;;8.75;5.67;;;;;;;17.79;56.80;100355.55;1827046;77;21045;-68
2022/02/15 10:09:00;;;;;;;8.03;5.20;;;;;;;17.93;56.58;100354.63;1841704;76;21041;-68
2022/02/15 10:11:40;;;;;;;7.78;4.72;;;;;;;18.06;56.31;100352.51;1843953;77;21110;-68
2022/02/15 10:14:08;;;;;;;8.73;4.90;;;;;;;18.18;56.07;100348.19;1832164;77;21119;-68
2022/02/15 10:16:50;;;;;;;7.97;5.00;;;;;;;18.32;55.87;100345.53;1839621;76;21061;-68
2022/02/15 10:19:26;;;;;;;7.72;5.22;;;;;;;18.43;55.72;100357.03;1794391;77;21035;-70
2022/02/15 10:21:55;;;;;;;6.45;4.90;;;;;;;18.56;55.54;100331.98;1773695;79;21036;-69
2022/02/15 10:24:23;;;;;;;7.85;5.12;;;;;;;18.67;55.40;100336.23;1784607;80;21317;-69
2022/02/15 10:26:59;;;;;;;7.10;4.28;;;;;;;18.79;55.19;100345.03;1783021;79;21137;-68
2022/02/15 10:29:27;;;;;;;7.17;4.37;;;;;;;18.88;55.05;100323.64;1776737;80;21040;-68
2022/02/15 10:31:59;;;;;;;7.87;4.90;;;;;;;18.99;54.84;100332.44;1824522;77;21045;-68
2022/02/15 10:34:26;;;;;;;7.05;4.80;;;;;;;19.10;54.66;100322.05;1825859;77;21020;-69
2022/02/15 10:36:57;;;;;;;9.28;4.70;;;;;;;19.21;54.42;100321.41;1831654;77;21111;-69
2022/02/15 10:39:44;;;;;;;8.10;4.53;;;;;;;19.28;54.19;100331.66;1840495;77;21085;-69
2022/02/15 10:42:14;;;;;;;7.08;4.40;;;;;;;19.38;53.96;100327.18;1834936;77;20998;-70
2022/02/15 10:44:51;;;;;;;8.45;4.17;;;;;;;19.49;53.71;100331.07;1845672;77;21041;-68
2022/02/15 10:47:18;;;;;;;6.53;4.72;;;;;;;19.57;53.48;100327.64;1844533;75;21028;-69
2022/02/15 10:49:45;;;;;;;7.60;4.00;;;;;;;19.66;53.25;100322.81;1844852;77;21181;-69
2022/02/15 10:52:13;;;;;;;6.50;3.90;;;;;;;19.74;53.13;100321.28;1851787;77;21021;-68
2022/02/15 10:54:42;;;;;;;5.33;3.72;;;;;;;19.82;52.97;100316.16;1847654;77;21084;-68
2022/02/15 10:57:15;;;;;;;7.22;4.55;;;;;;;19.90;52.88;100303.78;1847436;75;20990;-66
2022/02/15 10:59:43;;;;;;;6.08;4.15;;;;;;;19.94;52.68;100298.25;1786758;79;21096;-67
2022/02/15 11:02:15;;;;;;;4.72;4.00;;;;;;;20.05;52.50;100291.36;1845728;76;21844;-67
2022/02/15 11:04:41;;;;;;;6.42;3.65;;;;;;;20.14;52.35;100290.56;1842985;75;22027;-70
2022/02/15 11:07:11;;;;;;;6.55;3.70;;;;;;;20.22;52.27;100292.98;1855915;75;21028;-69
2022/02/15 11:10:01;;;;;;;6.53;3.87;;;;;;;20.30;52.13;100290.55;1850721;77;21569;-70
2022/02/15 11:12:39;;;;;;;6.08;4.12;;;;;;;20.37;51.96;100275.96;1790134;77;21028;-66
2022/02/15 11:15:07;;;;;;;6.97;4.28;;;;;;;20.47;51.53;100274.12;1813502;78;23336;-67
2022/02/15 11:17:34;;;;;;;6.83;4.00;;;;;;;20.55;51.39;100286.02;1847694;77;20988;-62
2022/02/15 11:20:08;;;;;;;6.03;4.08;;;;;;;20.60;48.15;100335.30;1843141;77;20990;-64
2022/02/15 11:22:53;;;;;;;6.45;3.90;;;;;;;20.58;48.70;100287.44;1849807;75;21009;-64
2022/02/15 11:25:35;;;;;;;4.53;3.33;;;;;;;20.62;49.37;100278.69;1848045;75;21056;-62
2022/02/15 11:28:13;;;;;;;5.15;3.98;;;;;;;20.72;49.91;100282.77;1848616;77;21113;-64
2022/02/15 11:30:54;;;;;;;7.15;4.40;;;;;;;20.81;49.78;100276.05;1842219;77;21075;-71
2022/02/15 11:33:34;;;;;;;4.55;3.62;;;;;;;20.89;49.71;100270.34;1839053;77;21462;-63
2022/02/15 11:36:07;;;;;;;6.55;4.30;;;;;;;20.95;49.70;100303.20;1852372;77;21462;-61
2022/02/15 11:38:35;;;;;;;5.60;3.45;;;;;;;21.03;49.73;100271.56;1843572;77;21143;-63
2022/02/15 11:41:12;;;;;;;6.70;3.30;;;;;;;21.10;49.76;100266.92;1849692;77;21115;-62
2022/02/15 11:43:37;;;;;;;5.25;3.80;;;;;;;21.15;49.63;100277.86;1842696;77;21450;-60